sensor_id;sensor_type;location;lat;lon;timestamp;pressure;altitude;pressure_sealevel;temperature;humidity
10712;BME280;5407;51.234;6.804;2022-08-19T00:01:36;100816.22;;;27.44;47.99
10712;BME280;5407;51.234;6.804;2022-08-19T00:04:06;100809.59;;;27.42;48.23
10712;BME280;5407;51.234;6.804;2022-08-19T00:06:34;100813.91;;;27.43;48.20
10712;BME280;5407;51.234;6.804;2022-08-19T00:09:03;100823.31;;;27.45;48.13
10712;BME280;5407;51.234;6.804;2022-08-19T00:11:31;100822.34;;;27.39;48.26
10712;BME280;5407;51.234;6.804;2022-08-19T00:13:59;100822.28;;;27.30;48.60
10712;BME280;5407;51.234;6.804;2022-08-19T00:16:26;100817.91;;;27.42;48.17
10712;BME280;5407;51.234;6.804;2022-08-19T00:18:53;100809.28;;;27.40;48.13
10712;BME280;5407;51.234;6.804;2022-08-19T00:21:20;100818.09;;;27.47;48.01
10712;BME280;5407;51.234;6.804;2022-08-19T00:23:47;100810.03;;;27.40;48.07
10712;BME280;5407;51.234;6.804;2022-08-19T00:26:14;100803.22;;;27.32;48.34
10712;BME280;5407;51.234;6.804;2022-08-19T00:28:41;100808.13;;;27.28;48.37
10712;BME280;5407;51.234;6.804;2022-08-19T00:31:09;100809.91;;;27.22;48.63
10712;BME280;5407;51.234;6.804;2022-08-19T00:33:36;100806.31;;;27.13;48.83
10712;BME280;5407;51.234;6.804;2022-08-19T00:36:06;100810.41;;;27.08;48.87
10712;BME280;5407;51.234;6.804;2022-08-19T00:38:34;100804.19;;;27.04;49.04
10712;BME280;5407;51.234;6.804;2022-08-19T00:41:02;100808.97;;;27.04;49.03
10712;BME280;5407;51.234;6.804;2022-08-19T00:43:29;100801.00;;;27.06;49.02
10712;BME280;5407;51.234;6.804;2022-08-19T00:45:55;100810.72;;;27.10;48.77
10712;BME280;5407;51.234;6.804;2022-08-19T00:48:24;100813.97;;;26.96;49.12
10712;BME280;5407;51.234;6.804;2022-08-19T00:50:52;100803.47;;;26.91;49.38
10712;BME280;5407;51.234;6.804;2022-08-19T00:53:22;100800.00;;;26.79;49.63
10712;BME280;5407;51.234;6.804;2022-08-19T00:55:50;100798.44;;;26.78;49.75
10712;BME280;5407;51.234;6.804;2022-08-19T00:58:21;100808.28;;;26.79;49.86
10712;BME280;5407;51.234;6.804;2022-08-19T01:00:48;100793.22;;;26.80;49.77
10712;BME280;5407;51.234;6.804;2022-08-19T01:03:18;100794.88;;;26.77;49.71
10712;BME280;5407;51.234;6.804;2022-08-19T01:05:47;100798.13;;;26.76;49.75
10712;BME280;5407;51.234;6.804;2022-08-19T01:08:17;100805.78;;;26.72;49.81
10712;BME280;5407;51.234;6.804;2022-08-19T01:10:46;100799.03;;;26.60;50.13
10712;BME280;5407;51.234;6.804;2022-08-19T01:13:15;100808.66;;;26.56;50.14
10712;BME280;5407;51.234;6.804;2022-08-19T01:15:47;100802.81;;;26.54;50.19
10712;BME280;5407;51.234;6.804;2022-08-19T01:18:17;100798.97;;;26.51;50.15
10712;BME280;5407;51.234;6.804;2022-08-19T01:20:44;100794.84;;;26.56;50.09
10712;BME280;5407;51.234;6.804;2022-08-19T01:23:14;100810.03;;;26.51;50.23
10712;BME280;5407;51.234;6.804;2022-08-19T01:25:44;100806.94;;;26.49;50.35
10712;BME280;5407;51.234;6.804;2022-08-19T01:28:16;100805.81;;;26.47;50.33
10712;BME280;5407;51.234;6.804;2022-08-19T01:30:44;100800.81;;;26.42;50.42
10712;BME280;5407;51.234;6.804;2022-08-19T01:33:12;100796.75;;;26.34;50.50
10712;BME280;5407;51.234;6.804;2022-08-19T01:35:40;100799.19;;;26.32;50.52
10712;BME280;5407;51.234;6.804;2022-08-19T01:38:09;100795.19;;;26.33;50.41
10712;BME280;5407;51.234;6.804;2022-08-19T01:40:39;100795.28;;;26.42;50.37
10712;BME280;5407;51.234;6.804;2022-08-19T01:43:07;100793.19;;;26.46;50.39
10712;BME280;5407;51.234;6.804;2022-08-19T01:45:35;100795.94;;;26.46;50.20
10712;BME280;5407;51.234;6.804;2022-08-19T01:48:03;100794.75;;;26.47;50.10
10712;BME280;5407;51.234;6.804;2022-08-19T01:50:32;100792.84;;;26.44;50.19
10712;BME280;5407;51.234;6.804;2022-08-19T01:53:00;100792.97;;;26.53;50.17
10712;BME280;5407;51.234;6.804;2022-08-19T01:55:27;100797.03;;;26.61;50.83
10712;BME280;5407;51.234;6.804;2022-08-19T01:57:58;100796.28;;;26.60;50.34
10712;BME280;5407;51.234;6.804;2022-08-19T02:00:28;100788.72;;;26.61;50.09
10712;BME280;5407;51.234;6.804;2022-08-19T02:02:56;100787.88;;;26.51;50.41
10712;BME280;5407;51.234;6.804;2022-08-19T02:05:23;100792.19;;;26.40;50.58
10712;BME280;5407;51.234;6.804;2022-08-19T02:07:50;100787.56;;;26.37;50.87
10712;BME280;5407;51.234;6.804;2022-08-19T02:10:20;100790.56;;;26.30;50.69
10712;BME280;5407;51.234;6.804;2022-08-19T02:12:48;100785.44;;;26.28;50.84
10712;BME280;5407;51.234;6.804;2022-08-19T02:15:18;100782.38;;;26.26;50.85
10712;BME280;5407;51.234;6.804;2022-08-19T02:17:46;100776.97;;;26.23;51.10
10712;BME280;5407;51.234;6.804;2022-08-19T02:20:14;100783.91;;;26.27;50.88
10712;BME280;5407;51.234;6.804;2022-08-19T02:22:41;100786.91;;;26.33;50.66
10712;BME280;5407;51.234;6.804;2022-08-19T02:25:09;100783.81;;;26.31;50.91
10712;BME280;5407;51.234;6.804;2022-08-19T02:27:37;100789.91;;;26.26;50.89
10712;BME280;5407;51.234;6.804;2022-08-19T02:30:06;100792.09;;;26.18;51.00
10712;BME280;5407;51.234;6.804;2022-08-19T02:32:34;100795.88;;;26.12;51.07
10712;BME280;5407;51.234;6.804;2022-08-19T02:35:02;100803.59;;;26.17;51.02
10712;BME280;5407;51.234;6.804;2022-08-19T02:37:29;100792.88;;;26.19;51.01
10712;BME280;5407;51.234;6.804;2022-08-19T02:40:13;100786.34;;;26.25;50.75
10712;BME280;5407;51.234;6.804;2022-08-19T02:42:43;100801.28;;;26.28;50.91
10712;BME280;5407;51.234;6.804;2022-08-19T02:45:11;100806.81;;;26.28;50.56
10712;BME280;5407;51.234;6.804;2022-08-19T02:47:39;100809.25;;;26.26;50.58
10712;BME280;5407;51.234;6.804;2022-08-19T02:50:07;100810.81;;;26.27;50.89
10712;BME280;5407;51.234;6.804;2022-08-19T02:52:35;100810.16;;;26.23;51.03
10712;BME280;5407;51.234;6.804;2022-08-19T02:55:03;100808.47;;;26.25;51.30
10712;BME280;5407;51.234;6.804;2022-08-19T02:57:31;100820.97;;;26.17;51.57
10712;BME280;5407;51.234;6.804;2022-08-19T02:59:59;100821.31;;;26.19;51.28
10712;BME280;5407;51.234;6.804;2022-08-19T03:02:26;100823.19;;;26.22;51.29
10712;BME280;5407;51.234;6.804;2022-08-19T03:04:55;100820.31;;;26.26;51.39
10712;BME280;5407;51.234;6.804;2022-08-19T03:07:22;100821.53;;;26.25;51.12
10712;BME280;5407;51.234;6.804;2022-08-19T03:09:49;100813.44;;;26.18;51.35
10712;BME280;5407;51.234;6.804;2022-08-19T03:12:15;100813.91;;;26.16;51.33
10712;BME280;5407;51.234;6.804;2022-08-19T03:14:42;100812.56;;;26.21;51.11
10712;BME280;5407;51.234;6.804;2022-08-19T03:17:12;100809.25;;;26.26;51.17
10712;BME280;5407;51.234;6.804;2022-08-19T03:19:39;100807.38;;;26.23;51.03
10712;BME280;5407;51.234;6.804;2022-08-19T03:22:07;100807.91;;;26.18;51.22
10712;BME280;5407;51.234;6.804;2022-08-19T03:24:34;100811.00;;;26.20;51.24
10712;BME280;5407;51.234;6.804;2022-08-19T03:27:02;100807.91;;;26.18;51.30
10712;BME280;5407;51.234;6.804;2022-08-19T03:29:30;100815.00;;;26.19;51.33
10712;BME280;5407;51.234;6.804;2022-08-19T03:31:58;100818.31;;;26.14;51.39
10712;BME280;5407;51.234;6.804;2022-08-19T03:34:28;100816.56;;;25.95;52.28
10712;BME280;5407;51.234;6.804;2022-08-19T03:36:57;100816.13;;;25.84;52.51
10712;BME280;5407;51.234;6.804;2022-08-19T03:39:27;100819.09;;;25.89;52.36
10712;BME280;5407;51.234;6.804;2022-08-19T03:41:55;100815.69;;;25.98;52.43
10712;BME280;5407;51.234;6.804;2022-08-19T03:44:25;100813.16;;;26.03;52.37
10712;BME280;5407;51.234;6.804;2022-08-19T03:46:56;100818.09;;;25.96;52.49
10712;BME280;5407;51.234;6.804;2022-08-19T03:49:24;100816.47;;;25.98;52.39
10712;BME280;5407;51.234;6.804;2022-08-19T03:51:53;100814.34;;;25.90;52.89
10712;BME280;5407;51.234;6.804;2022-08-19T03:54:22;100811.38;;;25.56;53.91
10712;BME280;5407;51.234;6.804;2022-08-19T03:56:52;100816.47;;;25.45;54.29
10712;BME280;5407;51.234;6.804;2022-08-19T03:59:24;100826.16;;;25.78;53.22
10712;BME280;5407;51.234;6.804;2022-08-19T04:01:52;100828.50;;;25.92;52.80
10712;BME280;5407;51.234;6.804;2022-08-19T04:04:19;100830.94;;;25.90;53.08
10712;BME280;5407;51.234;6.804;2022-08-19T04:06:47;100829.16;;;25.96;52.90
10712;BME280;5407;51.234;6.804;2022-08-19T04:09:16;100823.72;;;25.92;53.01
10712;BME280;5407;51.234;6.804;2022-08-19T04:11:47;100822.31;;;26.00;52.59
10712;BME280;5407;51.234;6.804;2022-08-19T04:14:17;100816.47;;;25.98;52.64
10712;BME280;5407;51.234;6.804;2022-08-19T04:16:45;100831.94;;;25.96;52.70
10712;BME280;5407;51.234;6.804;2022-08-19T04:19:13;100828.84;;;25.94;52.89
10712;BME280;5407;51.234;6.804;2022-08-19T04:21:43;100829.97;;;25.68;53.62
10712;BME280;5407;51.234;6.804;2022-08-19T04:24:11;100821.69;;;25.55;54.01
10712;BME280;5407;51.234;6.804;2022-08-19T04:26:39;100823.56;;;25.71;53.39
10712;BME280;5407;51.234;6.804;2022-08-19T04:29:09;100825.63;;;25.83;53.01
10712;BME280;5407;51.234;6.804;2022-08-19T04:31:39;100829.72;;;25.91;52.86
10712;BME280;5407;51.234;6.804;2022-08-19T04:34:08;100830.06;;;25.93;52.91
10712;BME280;5407;51.234;6.804;2022-08-19T04:36:39;100834.03;;;25.92;52.81
10712;BME280;5407;51.234;6.804;2022-08-19T04:39:08;100831.69;;;25.90;52.79
10712;BME280;5407;51.234;6.804;2022-08-19T04:41:36;100834.78;;;25.92;52.84
10712;BME280;5407;51.234;6.804;2022-08-19T04:44:33;100825.41;;;25.90;52.85
10712;BME280;5407;51.234;6.804;2022-08-19T04:47:03;100829.38;;;25.89;52.95
10712;BME280;5407;51.234;6.804;2022-08-19T04:49:31;100836.13;;;25.88;52.61
10712;BME280;5407;51.234;6.804;2022-08-19T04:51:58;100839.66;;;25.88;52.15
10712;BME280;5407;51.234;6.804;2022-08-19T04:54:25;100844.41;;;25.88;52.25
10712;BME280;5407;51.234;6.804;2022-08-19T04:56:53;100849.28;;;25.84;52.19
10712;BME280;5407;51.234;6.804;2022-08-19T04:59:20;100850.50;;;25.83;52.20
10712;BME280;5407;51.234;6.804;2022-08-19T05:01:48;100853.25;;;25.83;51.86
10712;BME280;5407;51.234;6.804;2022-08-19T05:04:18;100855.66;;;25.81;52.14
10712;BME280;5407;51.234;6.804;2022-08-19T05:06:47;100863.44;;;25.86;51.97
10712;BME280;5407;51.234;6.804;2022-08-19T05:09:15;100867.47;;;25.81;52.13
10712;BME280;5407;51.234;6.804;2022-08-19T05:11:42;100876.22;;;25.80;51.77
10712;BME280;5407;51.234;6.804;2022-08-19T05:14:10;100869.41;;;25.56;52.95
10712;BME280;5407;51.234;6.804;2022-08-19T05:16:39;100872.78;;;25.35;53.58
10712;BME280;5407;51.234;6.804;2022-08-19T05:19:06;100879.69;;;25.27;54.12
10712;BME280;5407;51.234;6.804;2022-08-19T05:21:52;100878.59;;;25.25;54.92
10712;BME280;5407;51.234;6.804;2022-08-19T05:24:36;100882.84;;;25.41;54.33
10712;BME280;5407;51.234;6.804;2022-08-19T05:27:04;100884.56;;;25.64;53.86
10712;BME280;5407;51.234;6.804;2022-08-19T05:29:31;100888.69;;;25.72;53.65
10712;BME280;5407;51.234;6.804;2022-08-19T05:32:00;100888.34;;;25.70;53.96
10712;BME280;5407;51.234;6.804;2022-08-19T05:34:27;100894.75;;;25.67;53.88
10712;BME280;5407;51.234;6.804;2022-08-19T05:36:57;100899.03;;;25.84;53.61
10712;BME280;5407;51.234;6.804;2022-08-19T05:39:26;100901.25;;;25.89;53.50
10712;BME280;5407;51.234;6.804;2022-08-19T05:41:56;100900.38;;;25.92;53.30
10712;BME280;5407;51.234;6.804;2022-08-19T05:44:25;100897.03;;;25.84;53.70
10712;BME280;5407;51.234;6.804;2022-08-19T05:46:52;100896.31;;;25.39;54.80
10712;BME280;5407;51.234;6.804;2022-08-19T05:49:21;100896.69;;;25.54;54.67
10712;BME280;5407;51.234;6.804;2022-08-19T05:51:48;100894.34;;;25.24;55.66
10712;BME280;5407;51.234;6.804;2022-08-19T05:54:17;100901.97;;;25.04;56.10
10712;BME280;5407;51.234;6.804;2022-08-19T05:56:45;100889.06;;;24.85;57.17
10712;BME280;5407;51.234;6.804;2022-08-19T05:59:14;100887.16;;;24.98;56.46
10712;BME280;5407;51.234;6.804;2022-08-19T06:01:44;100886.81;;;24.96;57.00
10712;BME280;5407;51.234;6.804;2022-08-19T06:04:12;100881.25;;;25.12;56.75
10712;BME280;5407;51.234;6.804;2022-08-19T06:06:40;100882.38;;;24.99;56.82
10712;BME280;5407;51.234;6.804;2022-08-19T06:09:07;100878.66;;;25.21;56.47
10712;BME280;5407;51.234;6.804;2022-08-19T06:11:39;100882.81;;;25.29;56.16
10712;BME280;5407;51.234;6.804;2022-08-19T06:14:11;100875.03;;;25.08;56.66
10712;BME280;5407;51.234;6.804;2022-08-19T06:16:39;100879.91;;;24.88;57.19
10712;BME280;5407;51.234;6.804;2022-08-19T06:19:08;100878.53;;;24.96;57.40
10712;BME280;5407;51.234;6.804;2022-08-19T06:21:37;100876.25;;;25.07;56.78
10712;BME280;5407;51.234;6.804;2022-08-19T06:24:07;100885.09;;;24.86;57.44
10712;BME280;5407;51.234;6.804;2022-08-19T06:26:37;100886.31;;;24.85;57.50
10712;BME280;5407;51.234;6.804;2022-08-19T06:29:06;100887.41;;;24.88;57.39
10712;BME280;5407;51.234;6.804;2022-08-19T06:31:35;100875.44;;;24.94;57.31
10712;BME280;5407;51.234;6.804;2022-08-19T06:34:03;100869.97;;;24.91;57.32
10712;BME280;5407;51.234;6.804;2022-08-19T06:36:34;100871.09;;;24.77;58.02
10712;BME280;5407;51.234;6.804;2022-08-19T06:39:02;100873.47;;;24.63;58.37
10712;BME280;5407;51.234;6.804;2022-08-19T06:41:32;100883.53;;;24.85;57.69
10712;BME280;5407;51.234;6.804;2022-08-19T06:44:02;100886.78;;;25.12;56.71
10712;BME280;5407;51.234;6.804;2022-08-19T06:46:30;100882.84;;;24.97;57.63
10712;BME280;5407;51.234;6.804;2022-08-19T06:48:58;100896.81;;;24.90;57.65
10712;BME280;5407;51.234;6.804;2022-08-19T06:51:26;100890.69;;;24.83;58.12
10712;BME280;5407;51.234;6.804;2022-08-19T06:53:54;100891.59;;;25.24;56.84
10712;BME280;5407;51.234;6.804;2022-08-19T06:56:23;100892.13;;;25.19;56.79
10712;BME280;5407;51.234;6.804;2022-08-19T06:58:56;100891.13;;;24.97;57.34
10712;BME280;5407;51.234;6.804;2022-08-19T07:01:24;100896.63;;;24.97;57.53
10712;BME280;5407;51.234;6.804;2022-08-19T07:03:51;100894.72;;;24.78;57.91
10712;BME280;5407;51.234;6.804;2022-08-19T07:06:19;100894.56;;;25.01;57.60
10712;BME280;5407;51.234;6.804;2022-08-19T07:08:47;100889.41;;;24.87;57.81
10712;BME280;5407;51.234;6.804;2022-08-19T07:11:16;100887.16;;;24.98;57.72
10712;BME280;5407;51.234;6.804;2022-08-19T07:13:44;100887.25;;;24.79;58.16
10712;BME280;5407;51.234;6.804;2022-08-19T07:16:16;100890.94;;;25.04;57.33
10712;BME280;5407;51.234;6.804;2022-08-19T07:18:46;100898.19;;;24.98;57.61
10712;BME280;5407;51.234;6.804;2022-08-19T07:21:15;100901.97;;;25.04;57.08
10712;BME280;5407;51.234;6.804;2022-08-19T07:23:43;100907.75;;;24.94;57.45
10712;BME280;5407;51.234;6.804;2022-08-19T07:26:12;100903.72;;;24.98;57.29
10712;BME280;5407;51.234;6.804;2022-08-19T07:28:39;100916.47;;;24.60;58.32
10712;BME280;5407;51.234;6.804;2022-08-19T07:31:10;100920.38;;;24.63;57.99
10712;BME280;5407;51.234;6.804;2022-08-19T07:33:37;100915.50;;;24.99;56.94
10712;BME280;5407;51.234;6.804;2022-08-19T07:36:08;100922.84;;;25.21;56.57
10712;BME280;5407;51.234;6.804;2022-08-19T07:38:37;100928.03;;;24.87;57.05
10712;BME280;5407;51.234;6.804;2022-08-19T07:41:05;100923.19;;;25.07;56.79
10712;BME280;5407;51.234;6.804;2022-08-19T07:43:32;100924.41;;;25.22;56.32
10712;BME280;5407;51.234;6.804;2022-08-19T07:45:59;100933.28;;;25.14;56.65
10712;BME280;5407;51.234;6.804;2022-08-19T07:48:27;100932.66;;;25.38;55.85
10712;BME280;5407;51.234;6.804;2022-08-19T07:50:56;100935.97;;;25.33;55.71
10712;BME280;5407;51.234;6.804;2022-08-19T07:53:28;100939.22;;;25.28;56.05
10712;BME280;5407;51.234;6.804;2022-08-19T07:55:56;100947.50;;;25.44;55.91
10712;BME280;5407;51.234;6.804;2022-08-19T07:58:27;100951.38;;;25.46;55.86
10712;BME280;5407;51.234;6.804;2022-08-19T08:00:54;100945.34;;;25.35;56.15
10712;BME280;5407;51.234;6.804;2022-08-19T08:03:22;100961.84;;;25.39;55.88
10712;BME280;5407;51.234;6.804;2022-08-19T08:06:10;100957.75;;;25.72;55.36
10712;BME280;5407;51.234;6.804;2022-08-19T08:08:56;100964.69;;;25.80;54.91
10712;BME280;5407;51.234;6.804;2022-08-19T08:11:45;100962.25;;;25.82;55.33
10712;BME280;5407;51.234;6.804;2022-08-19T08:14:16;100965.38;;;25.84;55.19
10712;BME280;5407;51.234;6.804;2022-08-19T08:16:43;100960.59;;;25.56;55.83
10712;BME280;5407;51.234;6.804;2022-08-19T08:19:11;100972.97;;;25.80;54.84
10712;BME280;5407;51.234;6.804;2022-08-19T08:21:40;100972.28;;;25.76;55.46
10712;BME280;5407;51.234;6.804;2022-08-19T08:24:10;100964.38;;;25.62;55.77
10712;BME280;5407;51.234;6.804;2022-08-19T08:26:38;100969.34;;;25.67;55.74
10712;BME280;5407;51.234;6.804;2022-08-19T08:29:07;100970.91;;;25.84;55.47
10712;BME280;5407;51.234;6.804;2022-08-19T08:31:37;100975.81;;;26.05;54.81
10712;BME280;5407;51.234;6.804;2022-08-19T08:34:04;100971.66;;;26.25;54.11
10712;BME280;5407;51.234;6.804;2022-08-19T08:36:32;100976.88;;;26.36;53.89
10712;BME280;5407;51.234;6.804;2022-08-19T08:39:00;100977.31;;;26.34;53.96
10712;BME280;5407;51.234;6.804;2022-08-19T08:41:38;100975.22;;;26.26;54.40
10712;BME280;5407;51.234;6.804;2022-08-19T08:44:14;100973.53;;;26.28;54.22
10712;BME280;5407;51.234;6.804;2022-08-19T08:46:48;100970.81;;;26.41;53.36
10712;BME280;5407;51.234;6.804;2022-08-19T08:49:26;100977.66;;;26.36;53.32
10712;BME280;5407;51.234;6.804;2022-08-19T08:52:00;100967.06;;;26.60;52.73
10712;BME280;5407;51.234;6.804;2022-08-19T08:54:35;100967.72;;;26.64;52.45
10712;BME280;5407;51.234;6.804;2022-08-19T08:57:11;100963.75;;;26.65;51.55
10712;BME280;5407;51.234;6.804;2022-08-19T08:59:40;100965.84;;;26.61;51.46
10712;BME280;5407;51.234;6.804;2022-08-19T09:02:08;100955.47;;;26.52;51.46
10712;BME280;5407;51.234;6.804;2022-08-19T09:04:35;100962.75;;;26.59;51.30
10712;BME280;5407;51.234;6.804;2022-08-19T09:07:15;100962.66;;;26.75;50.96
10712;BME280;5407;51.234;6.804;2022-08-19T09:09:48;100960.66;;;26.63;50.46
10712;BME280;5407;51.234;6.804;2022-08-19T09:12:23;100956.00;;;26.60;51.02
10712;BME280;5407;51.234;6.804;2022-08-19T09:14:55;100967.53;;;26.71;50.80
10712;BME280;5407;51.234;6.804;2022-08-19T09:17:25;100962.75;;;26.84;50.70
10712;BME280;5407;51.234;6.804;2022-08-19T09:19:58;100962.19;;;26.88;50.35
10712;BME280;5407;51.234;6.804;2022-08-19T09:22:26;100968.06;;;26.90;49.83
10712;BME280;5407;51.234;6.804;2022-08-19T09:24:54;100965.28;;;26.90;49.09
10712;BME280;5407;51.234;6.804;2022-08-19T09:27:23;100961.41;;;27.00;48.77
10712;BME280;5407;51.234;6.804;2022-08-19T09:29:52;100961.41;;;27.13;48.35
10712;BME280;5407;51.234;6.804;2022-08-19T09:32:21;100966.59;;;26.98;48.14
10712;BME280;5407;51.234;6.804;2022-08-19T09:34:49;100960.63;;;27.12;48.02
10712;BME280;5407;51.234;6.804;2022-08-19T09:37:21;100962.72;;;27.08;47.56
10712;BME280;5407;51.234;6.804;2022-08-19T09:39:49;100965.28;;;27.15;47.52
10712;BME280;5407;51.234;6.804;2022-08-19T09:42:17;100962.06;;;27.17;47.45
10712;BME280;5407;51.234;6.804;2022-08-19T09:44:45;100963.91;;;27.32;47.06
10712;BME280;5407;51.234;6.804;2022-08-19T09:47:13;100964.97;;;27.69;46.50
10712;BME280;5407;51.234;6.804;2022-08-19T09:49:41;100963.97;;;27.41;46.74
10712;BME280;5407;51.234;6.804;2022-08-19T09:52:09;100967.50;;;27.08;47.78
10712;BME280;5407;51.234;6.804;2022-08-19T09:54:36;100962.63;;;26.99;48.21
10712;BME280;5407;51.234;6.804;2022-08-19T09:57:03;100959.53;;;26.97;48.38
10712;BME280;5407;51.234;6.804;2022-08-19T09:59:31;100955.97;;;27.09;48.08
10712;BME280;5407;51.234;6.804;2022-08-19T10:01:59;100958.97;;;27.15;47.71
10712;BME280;5407;51.234;6.804;2022-08-19T10:04:26;100958.63;;;27.00;48.26
10712;BME280;5407;51.234;6.804;2022-08-19T10:07:13;100959.84;;;26.99;48.58
10712;BME280;5407;51.234;6.804;2022-08-19T10:09:41;100956.19;;;27.02;48.42
10712;BME280;5407;51.234;6.804;2022-08-19T10:12:08;100955.88;;;27.13;48.27
10712;BME280;5407;51.234;6.804;2022-08-19T10:14:36;100964.16;;;27.00;48.12
10712;BME280;5407;51.234;6.804;2022-08-19T10:17:05;100949.78;;;26.93;48.40
10712;BME280;5407;51.234;6.804;2022-08-19T10:19:32;100953.00;;;26.91;48.06
10712;BME280;5407;51.234;6.804;2022-08-19T10:22:05;100947.13;;;26.89;48.17
10712;BME280;5407;51.234;6.804;2022-08-19T10:24:33;100944.59;;;26.83;48.22
10712;BME280;5407;51.234;6.804;2022-08-19T10:27:00;100945.59;;;26.88;47.86
10712;BME280;5407;51.234;6.804;2022-08-19T10:29:29;100935.59;;;27.16;47.45
10712;BME280;5407;51.234;6.804;2022-08-19T10:31:57;100929.28;;;27.15;47.38
10712;BME280;5407;51.234;6.804;2022-08-19T10:34:27;100933.91;;;27.06;47.67
10712;BME280;5407;51.234;6.804;2022-08-19T10:36:55;100928.28;;;27.09;47.68
10712;BME280;5407;51.234;6.804;2022-08-19T10:39:22;100939.47;;;27.18;47.63
10712;BME280;5407;51.234;6.804;2022-08-19T10:41:49;100933.03;;;27.21;47.29
10712;BME280;5407;51.234;6.804;2022-08-19T10:44:16;100937.91;;;27.17;47.29
10712;BME280;5407;51.234;6.804;2022-08-19T10:46:44;100939.78;;;27.20;47.19
10712;BME280;5407;51.234;6.804;2022-08-19T10:49:12;100936.44;;;27.25;47.09
10712;BME280;5407;51.234;6.804;2022-08-19T10:51:41;100930.72;;;27.41;46.83
10712;BME280;5407;51.234;6.804;2022-08-19T10:54:26;100932.50;;;27.48;46.58
10712;BME280;5407;51.234;6.804;2022-08-19T10:57:13;100933.56;;;27.50;46.14
10712;BME280;5407;51.234;6.804;2022-08-19T10:59:40;100937.63;;;27.58;45.67
10712;BME280;5407;51.234;6.804;2022-08-19T11:02:09;100939.63;;;27.36;45.65
10712;BME280;5407;51.234;6.804;2022-08-19T11:04:36;100936.66;;;27.52;45.64
10712;BME280;5407;51.234;6.804;2022-08-19T11:07:05;100931.97;;;27.40;45.47
10712;BME280;5407;51.234;6.804;2022-08-19T11:09:37;100932.28;;;27.42;46.00
10712;BME280;5407;51.234;6.804;2022-08-19T11:12:05;100931.69;;;27.47;46.35
10712;BME280;5407;51.234;6.804;2022-08-19T11:14:33;100931.75;;;27.56;45.94
10712;BME280;5407;51.234;6.804;2022-08-19T11:17:00;100934.53;;;27.56;45.78
10712;BME280;5407;51.234;6.804;2022-08-19T11:19:28;100937.41;;;27.65;45.53
10712;BME280;5407;51.234;6.804;2022-08-19T11:21:55;100926.31;;;27.65;45.78
10712;BME280;5407;51.234;6.804;2022-08-19T11:24:25;100937.41;;;27.65;45.76
10712;BME280;5407;51.234;6.804;2022-08-19T11:26:54;100929.69;;;27.82;45.52
10712;BME280;5407;51.234;6.804;2022-08-19T11:29:24;100927.94;;;27.97;44.88
10712;BME280;5407;51.234;6.804;2022-08-19T11:31:53;100920.28;;;27.79;45.43
10712;BME280;5407;51.234;6.804;2022-08-19T11:34:23;100932.13;;;27.80;45.08
10712;BME280;5407;51.234;6.804;2022-08-19T11:36:51;100930.13;;;27.80;45.29
10712;BME280;5407;51.234;6.804;2022-08-19T11:39:20;100925.94;;;27.97;45.30
10712;BME280;5407;51.234;6.804;2022-08-19T11:41:49;100925.66;;;28.04;45.54
10712;BME280;5407;51.234;6.804;2022-08-19T11:44:16;100917.84;;;28.33;44.71
10712;BME280;5407;51.234;6.804;2022-08-19T11:46:44;100921.31;;;28.55;44.07
10712;BME280;5407;51.234;6.804;2022-08-19T11:49:13;100912.72;;;28.62;44.25
10712;BME280;5407;51.234;6.804;2022-08-19T11:51:40;100910.94;;;28.38;44.20
10712;BME280;5407;51.234;6.804;2022-08-19T11:54:09;100904.88;;;28.30;44.75
10712;BME280;5407;51.234;6.804;2022-08-19T11:56:37;100910.72;;;28.32;44.83
10712;BME280;5407;51.234;6.804;2022-08-19T11:59:05;100916.22;;;28.23;44.16
10712;BME280;5407;51.234;6.804;2022-08-19T12:01:33;100915.72;;;28.16;43.90
10712;BME280;5407;51.234;6.804;2022-08-19T12:04:00;100915.59;;;28.19;44.01
10712;BME280;5407;51.234;6.804;2022-08-19T12:06:31;100914.28;;;28.33;44.79
10712;BME280;5407;51.234;6.804;2022-08-19T12:09:01;100913.38;;;28.36;44.21
10712;BME280;5407;51.234;6.804;2022-08-19T12:11:29;100909.84;;;28.44;43.85
10712;BME280;5407;51.234;6.804;2022-08-19T12:13:56;100910.78;;;28.50;44.34
10712;BME280;5407;51.234;6.804;2022-08-19T12:16:26;100906.34;;;28.52;44.08
10712;BME280;5407;51.234;6.804;2022-08-19T12:18:54;100898.47;;;28.51;43.64
10712;BME280;5407;51.234;6.804;2022-08-19T12:21:23;100902.34;;;28.53;43.59
10712;BME280;5407;51.234;6.804;2022-08-19T12:23:53;100903.13;;;28.54;43.47
10712;BME280;5407;51.234;6.804;2022-08-19T12:26:20;100906.53;;;28.58;43.24
10712;BME280;5407;51.234;6.804;2022-08-19T12:28:47;100905.44;;;28.55;42.87
10712;BME280;5407;51.234;6.804;2022-08-19T12:31:14;100896.38;;;28.64;43.04
10712;BME280;5407;51.234;6.804;2022-08-19T12:33:43;100895.75;;;28.69;42.97
10712;BME280;5407;51.234;6.804;2022-08-19T12:36:12;100890.53;;;28.80;43.36
10712;BME280;5407;51.234;6.804;2022-08-19T12:38:40;100885.91;;;28.86;42.07
10712;BME280;5407;51.234;6.804;2022-08-19T12:41:10;100885.31;;;28.91;41.71
10712;BME280;5407;51.234;6.804;2022-08-19T12:43:38;100895.50;;;28.94;42.37
10712;BME280;5407;51.234;6.804;2022-08-19T12:46:05;100887.50;;;28.96;42.15
10712;BME280;5407;51.234;6.804;2022-08-19T12:48:33;100887.66;;;29.01;42.29
10712;BME280;5407;51.234;6.804;2022-08-19T12:51:06;100886.44;;;29.02;42.74
10712;BME280;5407;51.234;6.804;2022-08-19T12:53:34;100890.91;;;29.00;42.99
10712;BME280;5407;51.234;6.804;2022-08-19T12:56:02;100886.72;;;29.04;42.74
10712;BME280;5407;51.234;6.804;2022-08-19T12:58:29;100888.16;;;29.09;42.95
10712;BME280;5407;51.234;6.804;2022-08-19T13:01:00;100892.47;;;29.19;42.49
10712;BME280;5407;51.234;6.804;2022-08-19T13:03:32;100880.91;;;29.29;42.20
10712;BME280;5407;51.234;6.804;2022-08-19T13:05:58;100885.66;;;29.38;41.93
10712;BME280;5407;51.234;6.804;2022-08-19T13:08:27;100886.75;;;29.40;41.87
10712;BME280;5407;51.234;6.804;2022-08-19T13:10:54;100883.53;;;29.51;41.81